Time;durP1;ratioP1;P1;durP2;ratioP2;P2;SDS_P1;SDS_P2;PMS_P1;PMS_P2;Temp;Humidity;BMP_temperature;BMP_pressure;BME280_temperature;BME280_humidity;BME280_pressure;Samples;Min_cycle;Max_cycle;Signal;HPM_P1;HPM_P2
2023/12/17 00:01:06;;;;;;;11.23;8.30;;;;;;;;;;5114908;28;20035;-58
2023/12/17 00:03:32;;;;;;;14.80;9.90;;;;;;;;;;5114417;28;20045;-57
2023/12/17 00:05:58;;;;;;;12.30;8.90;;;;;;;;;;5114373;28;20464;-56
2023/12/17 00:08:24;;;;;;;12.07;8.38;;;;;;;;;;5114248;28;20024;-53
2023/12/17 00:10:50;;;;;;;12.75;8.93;;;;;;;;;;5113998;28;20035;-55
2023/12/17 00:13:16;;;;;;;14.25;9.60;;;;;;;;;;5114608;28;20023;-51
2023/12/17 00:15:42;;;;;;;11.38;7.70;;;;;;;;;;5114186;28;20047;-56
2023/12/17 00:18:08;;;;;;;9.50;7.85;;;;;;;;;;5114157;28;20068;-55
2023/12/17 00:20:34;;;;;;;12.80;8.07;;;;;;;;;;5114419;28;20347;-58
2023/12/17 00:23:00;;;;;;;10.45;7.55;;;;;;;;;;5114103;28;20026;-55
2023/12/17 00:25:29;;;;;;;10.65;7.80;;;;;;;;;;5114690;28;20028;-57
2023/12/17 00:27:55;;;;;;;14.63;7.90;;;;;;;;;;5114252;28;20028;-57
2023/12/17 00:30:21;;;;;;;11.43;7.18;;;;;;;;;;5114537;28;20099;-55
2023/12/17 00:32:47;;;;;;;9.90;7.00;;;;;;;;;;5113901;28;20028;-58
2023/12/17 00:35:13;;;;;;;9.43;7.13;;;;;;;;;;5113799;28;20080;-55
2023/12/17 00:37:39;;;;;;;12.45;7.15;;;;;;;;;;5114678;28;20020;-55
2023/12/17 00:40:06;;;;;;;8.93;6.88;;;;;;;;;;5114667;28;20046;-56
2023/12/17 00:42:32;;;;;;;9.43;7.40;;;;;;;;;;5113951;28;20036;-58
2023/12/17 00:44:58;;;;;;;7.20;6.50;;;;;;;;;;5114054;28;20126;-60
2023/12/17 00:47:24;;;;;;;9.52;7.43;;;;;;;;;;5114287;28;20024;-57
2023/12/17 00:49:50;;;;;;;12.38;7.53;;;;;;;;;;5113744;28;20027;-58
2023/12/17 00:52:16;;;;;;;12.68;6.82;;;;;;;;;;5113807;28;20035;-57
2023/12/17 00:54:42;;;;;;;8.75;6.95;;;;;;;;;;5113875;28;20106;-56
2023/12/17 00:57:08;;;;;;;9.27;7.05;;;;;;;;;;5114220;28;20378;-57
2023/12/17 00:59:34;;;;;;;10.30;7.57;;;;;;;;;;5114499;28;20027;-56
2023/12/17 01:02:00;;;;;;;9.07;6.60;;;;;;;;;;5113596;28;20376;-54
2023/12/17 01:04:26;;;;;;;10.20;7.40;;;;;;;;;;5113874;28;20450;-56
2023/12/17 01:06:52;;;;;;;9.50;7.60;;;;;;;;;;5114355;28;20513;-55
2023/12/17 01:09:18;;;;;;;9.35;7.22;;;;;;;;;;5113658;28;20077;-57
2023/12/17 01:11:44;;;;;;;14.75;8.63;;;;;;;;;;5113758;28;20055;-58
2023/12/17 01:14:10;;;;;;;9.57;7.57;;;;;;;;;;5114307;28;20051;-56
2023/12/17 01:16:36;;;;;;;9.95;8.13;;;;;;;;;;5113830;28;20453;-58
2023/12/17 01:19:02;;;;;;;9.40;8.40;;;;;;;;;;5114627;28;20439;-58
2023/12/17 01:21:28;;;;;;;10.77;8.40;;;;;;;;;;5113684;28;20035;-57
2023/12/17 01:23:54;;;;;;;12.38;8.43;;;;;;;;;;5113432;28;20024;-58
2023/12/17 01:26:22;;;;;;;14.32;8.43;;;;;;;;;;5114023;28;20437;-57
2023/12/17 01:28:49;;;;;;;13.32;8.80;;;;;;;;;;5113659;28;20032;-58
2023/12/17 01:31:14;;;;;;;9.68;8.38;;;;;;;;;;5114130;28;20032;-58
2023/12/17 01:33:40;;;;;;;12.60;8.75;;;;;;;;;;5113977;28;20335;-58
2023/12/17 01:36:07;;;;;;;19.13;9.80;;;;;;;;;;5114171;28;20384;-58
2023/12/17 01:38:33;;;;;;;13.77;10.18;;;;;;;;;;5113606;28;20035;-58
2023/12/17 01:40:58;;;;;;;15.13;12.00;;;;;;;;;;5114131;28;20097;-56
2023/12/17 01:43:24;;;;;;;13.38;10.73;;;;;;;;;;5114388;28;20461;-58
2023/12/17 01:45:51;;;;;;;16.30;11.48;;;;;;;;;;5113543;28;20504;-56
2023/12/17 01:48:17;;;;;;;14.02;11.32;;;;;;;;;;5113455;28;20088;-58
2023/12/17 01:50:43;;;;;;;22.98;12.20;;;;;;;;;;5113456;28;20031;-58
2023/12/17 01:53:12;;;;;;;16.15;12.98;;;;;;;;;;5116260;28;20023;-58
2023/12/17 01:55:38;;;;;;;23.88;15.32;;;;;;;;;;5116709;28;20024;-56
2023/12/17 01:58:04;;;;;;;25.38;19.38;;;;;;;;;;5117607;28;20055;-58
2023/12/17 02:00:30;;;;;;;28.02;19.77;;;;;;;;;;5116989;28;20028;-58
2023/12/17 02:02:56;;;;;;;24.20;19.90;;;;;;;;;;5116938;28;20085;-58
2023/12/17 02:05:22;;;;;;;26.38;20.17;;;;;;;;;;5116858;28;20024;-57
2023/12/17 02:07:48;;;;;;;31.97;19.60;;;;;;;;;;5116878;28;20028;-56
2023/12/17 02:10:14;;;;;;;22.80;17.08;;;;;;;;;;5116318;28;20040;-58
2023/12/17 02:12:40;;;;;;;19.13;15.03;;;;;;;;;;5116728;28;20157;-56
2023/12/17 02:15:06;;;;;;;19.92;13.98;;;;;;;;;;5117293;28;20051;-59
2023/12/17 02:17:32;;;;;;;16.60;13.67;;;;;;;;;;5116691;28;20028;-57
2023/12/17 02:19:58;;;;;;;16.42;12.27;;;;;;;;;;5116630;28;20499;-57
2023/12/17 02:22:25;;;;;;;15.68;12.80;;;;;;;;;;5116773;28;20019;-55
2023/12/17 02:24:52;;;;;;;12.98;11.50;;;;;;;;;;5116456;28;20027;-56
2023/12/17 02:27:21;;;;;;;15.13;11.90;;;;;;;;;;5117014;28;20027;-57
2023/12/17 02:29:47;;;;;;;14.43;12.32;;;;;;;;;;5116656;28;20042;-58
2023/12/17 02:32:14;;;;;;;12.90;11.13;;;;;;;;;;5116603;28;20363;-56
2023/12/17 02:34:40;;;;;;;18.83;11.77;;;;;;;;;;5116340;28;20030;-54
2023/12/17 02:37:06;;;;;;;13.27;11.20;;;;;;;;;;5117097;28;20319;-57
2023/12/17 02:39:32;;;;;;;15.60;11.18;;;;;;;;;;5116202;28;20041;-56
2023/12/17 02:41:58;;;;;;;12.02;10.82;;;;;;;;;;5116126;28;20110;-55
2023/12/17 02:44:24;;;;;;;14.73;11.67;;;;;;;;;;5116116;28;20015;-55
2023/12/17 02:46:50;;;;;;;17.85;10.60;;;;;;;;;;5116092;28;20028;-57
2023/12/17 02:49:16;;;;;;;15.75;12.02;;;;;;;;;;5116491;28;20131;-55
2023/12/17 02:51:42;;;;;;;12.55;10.68;;;;;;;;;;5115643;28;20488;-58
2023/12/17 02:54:08;;;;;;;13.75;11.65;;;;;;;;;;5116750;28;20023;-56
2023/12/17 02:56:40;;;;;;;12.73;11.03;;;;;;;;;;5115925;28;20551;-56
2023/12/17 02:59:09;;;;;;;15.70;12.60;;;;;;;;;;5115784;28;20031;-55
2023/12/17 03:01:36;;;;;;;13.57;12.17;;;;;;;;;;5116036;28;20036;-57
2023/12/17 03:04:03;;;;;;;16.93;12.47;;;;;;;;;;5114750;28;20040;-57
2023/12/17 03:06:29;;;;;;;15.27;12.60;;;;;;;;;;5116273;28;20084;-57
2023/12/17 03:08:55;;;;;;;16.27;11.73;;;;;;;;;;5115899;28;20385;-58
2023/12/17 03:11:21;;;;;;;16.10;12.70;;;;;;;;;;5116059;28;20034;-56
2023/12/17 03:13:47;;;;;;;15.47;11.73;;;;;;;;;;5115569;28;20023;-53
2023/12/17 03:16:13;;;;;;;16.90;12.20;;;;;;;;;;5115540;28;20111;-57
2023/12/17 03:18:39;;;;;;;14.77;11.40;;;;;;;;;;5115713;28;20123;-55
2023/12/17 03:21:07;;;;;;;20.98;11.63;;;;;;;;;;5115047;28;20454;-57
2023/12/17 03:23:33;;;;;;;14.07;12.50;;;;;;;;;;5115601;28;20035;-54
2023/12/17 03:25:59;;;;;;;18.67;12.47;;;;;;;;;;5115390;28;20031;-56
2023/12/17 03:28:25;;;;;;;13.33;11.93;;;;;;;;;;5115847;28;20043;-57
2023/12/17 03:30:50;;;;;;;15.25;12.57;;;;;;;;;;5115208;28;20051;-56
2023/12/17 03:33:16;;;;;;;15.02;11.52;;;;;;;;;;5115133;28;20116;-55
2023/12/17 03:35:42;;;;;;;16.02;12.02;;;;;;;;;;5115185;28;20027;-57
2023/12/17 03:38:08;;;;;;;15.30;12.17;;;;;;;;;;5115702;28;20385;-57
2023/12/17 03:40:34;;;;;;;16.73;11.80;;;;;;;;;;5115058;28;20035;-57
2023/12/17 03:43:00;;;;;;;16.25;13.93;;;;;;;;;;5115289;28;20047;-54
2023/12/17 03:45:26;;;;;;;17.70;12.20;;;;;;;;;;5114666;28;20446;-55
2023/12/17 03:47:52;;;;;;;14.40;11.90;;;;;;;;;;5114939;28;20105;-54
2023/12/17 03:50:19;;;;;;;24.33;13.45;;;;;;;;;;5115046;28;20031;-52
2023/12/17 03:52:48;;;;;;;15.23;13.07;;;;;;;;;;5115120;28;20080;-54
2023/12/17 03:55:14;;;;;;;15.80;12.83;;;;;;;;;;5114779;28;20024;-57
2023/12/17 03:57:41;;;;;;;23.80;13.83;;;;;;;;;;5115102;28;20130;-56
2023/12/17 04:00:07;;;;;;;14.40;12.63;;;;;;;;;;5115477;28;20030;-57
2023/12/17 04:02:33;;;;;;;14.27;12.87;;;;;;;;;;5114099;28;20571;-55
2023/12/17 04:04:59;;;;;;;12.73;11.43;;;;;;;;;;5114588;28;20027;-56
2023/12/17 04:07:26;;;;;;;17.13;13.37;;;;;;;;;;5115399;28;20346;-55
2023/12/17 04:09:52;;;;;;;15.60;12.63;;;;;;;;;;5114772;28;20168;-55
2023/12/17 04:12:18;;;;;;;17.37;13.97;;;;;;;;;;5115035;28;20357;-52
2023/12/17 04:14:44;;;;;;;15.50;13.53;;;;;;;;;;5114151;28;20370;-57
2023/12/17 04:17:10;;;;;;;14.90;13.40;;;;;;;;;;5114974;28;20072;-57
2023/12/17 04:19:36;;;;;;;15.88;14.23;;;;;;;;;;5114356;28;20475;-56
2023/12/17 04:22:02;;;;;;;15.83;12.97;;;;;;;;;;5114369;28;20072;-57
2023/12/17 04:24:28;;;;;;;14.30;12.90;;;;;;;;;;5114354;28;20435;-54
2023/12/17 04:26:54;;;;;;;15.02;12.38;;;;;;;;;;5114033;28;20055;-57
2023/12/17 04:29:20;;;;;;;15.80;13.90;;;;;;;;;;5114487;28;20036;-56
2023/12/17 04:31:46;;;;;;;15.27;12.50;;;;;;;;;;5114188;28;20041;-57
2023/12/17 04:34:12;;;;;;;18.73;14.77;;;;;;;;;;5114253;28;20028;-57
2023/12/17 04:36:38;;;;;;;19.40;15.57;;;;;;;;;;5114137;28;20016;-57
2023/12/17 04:39:05;;;;;;;14.20;12.07;;;;;;;;;;5114187;28;20516;-55
2023/12/17 04:41:31;;;;;;;16.03;13.17;;;;;;;;;;5114430;28;20020;-54
2023/12/17 04:43:58;;;;;;;15.00;13.40;;;;;;;;;;5114101;28;20032;-56
2023/12/17 04:46:24;;;;;;;18.00;14.00;;;;;;;;;;5114596;28;20430;-55
2023/12/17 04:48:49;;;;;;;14.90;12.97;;;;;;;;;;5114024;28;20130;-55
2023/12/17 04:51:16;;;;;;;19.02;15.38;;;;;;;;;;5114033;28;20027;-57
2023/12/17 04:53:42;;;;;;;17.67;14.50;;;;;;;;;;5114185;28;20042;-56
2023/12/17 04:56:08;;;;;;;19.08;13.98;;;;;;;;;;5114183;28;20403;-56
2023/12/17 04:58:34;;;;;;;15.43;13.37;;;;;;;;;;5113916;28;20122;-57
2023/12/17 05:01:00;;;;;;;17.97;14.77;;;;;;;;;;5114004;28;20062;-55
2023/12/17 05:03:26;;;;;;;17.87;13.97;;;;;;;;;;5113931;28;20115;-57
2023/12/17 05:05:52;;;;;;;22.73;15.13;;;;;;;;;;5114456;28;20063;-54
2023/12/17 05:08:19;;;;;;;22.20;14.90;;;;;;;;;;5114640;28;20468;-57
2023/12/17 05:10:45;;;;;;;17.80;15.40;;;;;;;;;;5113800;28;20027;-57
2023/12/17 05:13:11;;;;;;;20.33;15.10;;;;;;;;;;5114322;28;20029;-56
2023/12/17 05:15:38;;;;;;;17.57;13.33;;;;;;;;;;5114333;28;20027;-55
2023/12/17 05:18:04;;;;;;;17.67;15.50;;;;;;;;;;5114094;28;20020;-55
2023/12/17 05:20:30;;;;;;;17.57;15.33;;;;;;;;;;5113772;28;20023;-57
2023/12/17 05:22:56;;;;;;;18.80;15.10;;;;;;;;;;5113709;28;20080;-56
2023/12/17 05:25:22;;;;;;;18.53;14.67;;;;;;;;;;5114270;28;20035;-55
2023/12/17 05:27:48;;;;;;;16.63;14.93;;;;;;;;;;5116403;28;20019;-57
2023/12/17 05:30:14;;;;;;;19.17;16.67;;;;;;;;;;5117541;28;20114;-56
2023/12/17 05:32:40;;;;;;;18.40;14.90;;;;;;;;;;5117583;28;20081;-57
2023/12/17 05:35:06;;;;;;;17.77;14.83;;;;;;;;;;5118032;28;20503;-54
2023/12/17 05:37:32;;;;;;;18.93;15.77;;;;;;;;;;5117721;28;20088;-57
2023/12/17 05:39:58;;;;;;;16.93;15.27;;;;;;;;;;5117061;28;20032;-57
2023/12/17 05:42:24;;;;;;;20.10;16.43;;;;;;;;;;5117825;28;20026;-55
2023/12/17 05:44:51;;;;;;;17.20;14.37;;;;;;;;;;5116947;28;20123;-51
2023/12/17 05:47:17;;;;;;;17.77;15.07;;;;;;;;;;5117892;28;20064;-56
2023/12/17 05:49:43;;;;;;;16.77;14.57;;;;;;;;;;5117637;28;20038;-53
2023/12/17 05:52:09;;;;;;;14.30;13.00;;;;;;;;;;5116846;28;20024;-52
2023/12/17 05:54:35;;;;;;;18.17;13.47;;;;;;;;;;5117904;28;20374;-51
2023/12/17 05:57:01;;;;;;;21.57;15.63;;;;;;;;;;5116915;27;20431;-52
2023/12/17 05:59:27;;;;;;;17.00;13.33;;;;;;;;;;5116993;28;20023;-55
2023/12/17 06:01:53;;;;;;;17.02;12.93;;;;;;;;;;5117022;28;20035;-57
2023/12/17 06:04:20;;;;;;;19.00;15.33;;;;;;;;;;5117038;28;20160;-57
2023/12/17 06:06:46;;;;;;;14.90;13.40;;;;;;;;;;5117792;28;20391;-54
2023/12/17 06:09:12;;;;;;;18.90;14.20;;;;;;;;;;5117493;28;20092;-57
2023/12/17 06:11:38;;;;;;;14.90;12.37;;;;;;;;;;5117612;28;20023;-55
2023/12/17 06:14:04;;;;;;;15.10;13.27;;;;;;;;;;5117007;28;20062;-55
2023/12/17 06:16:30;;;;;;;17.07;11.50;;;;;;;;;;5117312;28;20024;-52
2023/12/17 06:18:57;;;;;;;13.43;11.63;;;;;;;;;;5116660;28;20084;-54
2023/12/17 06:21:24;;;;;;;15.03;12.93;;;;;;;;;;5117227;28;20047;-56
2023/12/17 06:23:50;;;;;;;14.60;12.20;;;;;;;;;;5116614;28;20024;-51
2023/12/17 06:26:19;;;;;;;15.07;12.27;;;;;;;;;;5116280;28;20058;-53
2023/12/17 06:28:45;;;;;;;14.77;13.18;;;;;;;;;;5117024;28;20112;-55
2023/12/17 06:31:10;;;;;;;15.27;12.90;;;;;;;;;;5116556;28;20458;-53
2023/12/17 06:33:36;;;;;;;13.85;11.70;;;;;;;;;;5116996;28;20403;-55
2023/12/17 06:36:02;;;;;;;13.73;12.25;;;;;;;;;;5116906;28;20438;-52
2023/12/17 06:38:28;;;;;;;13.50;11.20;;;;;;;;;;5116587;28;20164;-55
2023/12/17 06:40:54;;;;;;;15.43;12.50;;;;;;;;;;5116289;28;20474;-51
2023/12/17 06:43:20;;;;;;;11.83;10.30;;;;;;;;;;5115733;28;20024;-54
2023/12/17 06:45:46;;;;;;;11.83;10.60;;;;;;;;;;5116924;28;20019;-55
2023/12/17 06:48:12;;;;;;;14.32;11.10;;;;;;;;;;5116646;28;20482;-55
2023/12/17 06:50:38;;;;;;;12.95;9.93;;;;;;;;;;5116653;28;20051;-57
2023/12/17 06:53:04;;;;;;;11.20;10.02;;;;;;;;;;5116817;28;20027;-57
2023/12/17 06:55:30;;;;;;;13.25;11.07;;;;;;;;;;5115427;28;20028;-57
2023/12/17 06:57:56;;;;;;;12.32;10.57;;;;;;;;;;5116828;28;20115;-57
2023/12/17 07:00:22;;;;;;;15.88;10.35;;;;;;;;;;5115922;28;20027;-56
2023/12/17 07:02:48;;;;;;;13.30;11.07;;;;;;;;;;5115836;28;20100;-55
2023/12/17 07:05:14;;;;;;;11.20;9.97;;;;;;;;;;5115857;28;20399;-54
2023/12/17 07:07:40;;;;;;;13.90;10.90;;;;;;;;;;5116107;28;20030;-58
2023/12/17 07:10:06;;;;;;;12.10;10.15;;;;;;;;;;5116484;28;20036;-56
2023/12/17 07:12:32;;;;;;;16.65;10.75;;;;;;;;;;5115689;28;20030;-57
2023/12/17 07:14:58;;;;;;;13.15;10.52;;;;;;;;;;5115621;28;20449;-57
2023/12/17 07:17:24;;;;;;;11.93;10.32;;;;;;;;;;5116091;28;20032;-57
2023/12/17 07:19:50;;;;;;;11.32;9.85;;;;;;;;;;5115575;28;20111;-55
2023/12/17 07:22:22;;;;;;;12.47;10.97;;;;;;;;;;5116033;28;20107;-56
2023/12/17 07:24:48;;;;;;;12.87;10.67;;;;;;;;;;5115899;28;20069;-57
2023/12/17 07:27:14;;;;;;;17.27;11.20;;;;;;;;;;5116130;28;20387;-57
2023/12/17 07:29:43;;;;;;;14.17;11.57;;;;;;;;;;5115203;28;20047;-57
2023/12/17 07:32:09;;;;;;;13.40;11.03;;;;;;;;;;5115970;28;20028;-56
2023/12/17 07:34:35;;;;;;;12.90;11.37;;;;;;;;;;5115293;28;20158;-56
2023/12/17 07:37:01;;;;;;;14.60;11.90;;;;;;;;;;5115347;28;20063;-57
2023/12/17 07:39:27;;;;;;;15.07;12.10;;;;;;;;;;5115076;28;20100;-55
2023/12/17 07:41:53;;;;;;;14.90;12.20;;;;;;;;;;5115040;28;20063;-54
2023/12/17 07:44:19;;;;;;;13.40;11.75;;;;;;;;;;5114983;28;20050;-53
2023/12/17 07:46:45;;;;;;;13.30;11.93;;;;;;;;;;5114901;28;20099;-55
2023/12/17 07:49:11;;;;;;;17.37;12.43;;;;;;;;;;5114619;28;20065;-52
2023/12/17 07:51:38;;;;;;;13.73;12.23;;;;;;;;;;5114818;28;20031;-55
2023/12/17 07:54:05;;;;;;;14.88;13.25;;;;;;;;;;5114449;28;20023;-55
2023/12/17 07:56:31;;;;;;;13.55;12.13;;;;;;;;;;5114775;28;20047;-57
2023/12/17 07:58:58;;;;;;;14.17;12.77;;;;;;;;;;5114357;28;20358;-57
2023/12/17 08:01:30;;;;;;;15.40;13.70;;;;;;;;;;5114566;28;20027;-56
2023/12/17 08:03:59;;;;;;;17.70;13.03;;;;;;;;;;5114611;28;20023;-58
2023/12/17 08:06:25;;;;;;;17.55;12.65;;;;;;;;;;5114522;28;20038;-57
2023/12/17 08:08:51;;;;;;;15.27;13.03;;;;;;;;;;5114813;28;20028;-57
2023/12/17 08:11:17;;;;;;;13.82;12.50;;;;;;;;;;5114568;28;20055;-57
2023/12/17 08:13:44;;;;;;;19.15;13.82;;;;;;;;;;5114749;28;20023;-57
2023/12/17 08:16:10;;;;;;;19.13;14.13;;;;;;;;;;5113424;28;20027;-57
2023/12/17 08:18:36;;;;;;;14.33;12.60;;;;;;;;;;5115204;28;20050;-56
2023/12/17 08:21:02;;;;;;;15.07;12.93;;;;;;;;;;5114429;28;20031;-55
2023/12/17 08:23:28;;;;;;;15.75;12.27;;;;;;;;;;5114403;28;20416;-57
2023/12/17 08:25:54;;;;;;;13.57;12.18;;;;;;;;;;5114869;28;20036;-56
2023/12/17 08:28:21;;;;;;;14.40;12.90;;;;;;;;;;5114775;28;20024;-57
2023/12/17 08:30:47;;;;;;;14.50;12.55;;;;;;;;;;5114295;28;20477;-57
2023/12/17 08:33:13;;;;;;;19.23;12.63;;;;;;;;;;5114242;28;20084;-57
2023/12/17 08:35:39;;;;;;;14.87;12.10;;;;;;;;;;5114744;28;20031;-56
2023/12/17 08:38:05;;;;;;;15.53;12.30;;;;;;;;;;5115059;28;20115;-54
2023/12/17 08:40:37;;;;;;;14.23;12.75;;;;;;;;;;5114176;28;20036;-57
2023/12/17 08:43:03;;;;;;;13.52;11.75;;;;;;;;;;5114162;28;20485;-55
2023/12/17 08:45:29;;;;;;;16.17;14.05;;;;;;;;;;5113803;28;20038;-56
2023/12/17 08:47:55;;;;;;;15.93;14.23;;;;;;;;;;5114386;28;20027;-55
2023/12/17 08:50:21;;;;;;;14.65;13.15;;;;;;;;;;5114315;28;20118;-56
2023/12/17 08:52:47;;;;;;;17.57;13.53;;;;;;;;;;5114060;28;20450;-54
2023/12/17 08:55:13;;;;;;;13.80;12.17;;;;;;;;;;5114508;28;20157;-54
2023/12/17 08:57:39;;;;;;;12.97;11.63;;;;;;;;;;5113940;28;20048;-52
2023/12/17 09:00:05;;;;;;;14.98;12.15;;;;;;;;;;5113961;28;20032;-54
2023/12/17 09:02:32;;;;;;;13.93;12.50;;;;;;;;;;5118857;28;20164;-54
2023/12/17 09:04:57;;;;;;;16.20;13.85;;;;;;;;;;5118023;28;20027;-51
2023/12/17 09:07:24;;;;;;;14.82;13.30;;;;;;;;;;5118150;28;20023;-56
2023/12/17 09:09:50;;;;;;;15.80;13.30;;;;;;;;;;5117795;28;20035;-52
2023/12/17 09:12:16;;;;;;;15.73;13.98;;;;;;;;;;5117753;28;20035;-52
2023/12/17 09:14:42;;;;;;;19.33;14.27;;;;;;;;;;5117882;28;20024;-53
2023/12/17 09:17:08;;;;;;;19.13;14.07;;;;;;;;;;5116871;28;20042;-54
2023/12/17 09:19:34;;;;;;;16.13;13.65;;;;;;;;;;5117363;28;20500;-51
2023/12/17 09:22:00;;;;;;;14.60;13.05;;;;;;;;;;5117820;28;20036;-57
2023/12/17 09:24:26;;;;;;;16.52;14.85;;;;;;;;;;5118570;28;20027;-55
2023/12/17 09:26:52;;;;;;;14.48;12.75;;;;;;;;;;5117741;28;20031;-56
2023/12/17 09:29:18;;;;;;;15.13;13.15;;;;;;;;;;5118354;28;20342;-55
2023/12/17 09:31:44;;;;;;;20.77;14.43;;;;;;;;;;5118277;28;20024;-53
2023/12/17 09:34:10;;;;;;;16.42;14.73;;;;;;;;;;5117207;28;20479;-56
2023/12/17 09:36:35;;;;;;;14.90;13.02;;;;;;;;;;5117257;28;20392;-56
2023/12/17 09:39:01;;;;;;;13.85;12.25;;;;;;;;;;5117661;28;20028;-55
2023/12/17 09:41:27;;;;;;;14.82;13.32;;;;;;;;;;5117309;28;20027;-57
2023/12/17 09:43:53;;;;;;;15.25;13.63;;;;;;;;;;5117465;28;20030;-55
2023/12/17 09:46:19;;;;;;;16.55;14.80;;;;;;;;;;5117303;28;20023;-57
2023/12/17 09:48:47;;;;;;;16.02;13.05;;;;;;;;;;5116899;28;20032;-55
2023/12/17 09:51:13;;;;;;;15.63;14.05;;;;;;;;;;5117135;28;20055;-56
2023/12/17 09:53:40;;;;;;;18.55;13.73;;;;;;;;;;5117034;28;20034;-57
2023/12/17 09:56:06;;;;;;;16.17;14.55;;;;;;;;;;5115835;28;20401;-56
2023/12/17 09:58:32;;;;;;;14.57;13.02;;;;;;;;;;5117224;28;20027;-53
2023/12/17 10:00:58;;;;;;;14.60;13.05;;;;;;;;;;5117161;28;20028;-53
2023/12/17 10:03:24;;;;;;;15.90;14.13;;;;;;;;;;5116830;28;20381;-55
2023/12/17 10:05:53;;;;;;;19.38;13.60;;;;;;;;;;5116742;28;20027;-53
2023/12/17 10:08:19;;;;;;;15.23;13.68;;;;;;;;;;5116903;28;20097;-57
2023/12/17 10:10:45;;;;;;;15.27;13.50;;;;;;;;;;5116475;28;20024;-50
2023/12/17 10:13:21;;;;;;;13.30;11.90;;;;;;;;;;5115852;28;20051;-54
2023/12/17 10:15:48;;;;;;;12.45;11.15;;;;;;;;;;5116553;28;20026;-56
2023/12/17 10:18:14;;;;;;;14.13;11.38;;;;;;;;;;5117165;28;20024;-56
2023/12/17 10:20:40;;;;;;;13.30;11.40;;;;;;;;;;5116414;28;20046;-53
2023/12/17 10:23:06;;;;;;;11.85;10.65;;;;;;;;;;5116310;28;20012;-55
2023/12/17 10:25:32;;;;;;;11.73;10.40;;;;;;;;;;5116314;28;20512;-56
2023/12/17 10:27:59;;;;;;;12.05;10.82;;;;;;;;;;5116786;28;20457;-55
2023/12/17 10:30:29;;;;;;;10.30;9.23;;;;;;;;;;5116054;28;20097;-56
2023/12/17 10:32:56;;;;;;;12.90;11.55;;;;;;;;;;5116094;28;20012;-56
2023/12/17 10:35:25;;;;;;;11.02;9.40;;;;;;;;;;5116693;28;20534;-57
2023/12/17 10:37:57;;;;;;;10.73;9.30;;;;;;;;;;5116155;28;20480;-57
2023/12/17 10:40:27;;;;;;;13.15;9.98;;;;;;;;;;5116421;28;20404;-55
2023/12/17 10:42:55;;;;;;;10.35;9.38;;;;;;;;;;5116064;28;20031;-57
2023/12/17 10:45:21;;;;;;;10.00;9.02;;;;;;;;;;5116068;28;20023;-57
2023/12/17 10:47:56;;;;;;;13.98;10.57;;;;;;;;;;5115704;28;20016;-57
2023/12/17 10:50:29;;;;;;;9.95;8.95;;;;;;;;;;5116666;28;20118;-56
2023/12/17 10:52:55;;;;;;;13.75;9.52;;;;;;;;;;5115788;28;20024;-54
2023/12/17 10:55:22;;;;;;;12.20;10.23;;;;;;;;;;5116438;28;20024;-54
2023/12/17 10:57:59;;;;;;;11.32;9.70;;;;;;;;;;5116459;28;20048;-55
2023/12/17 11:00:26;;;;;;;12.13;10.38;;;;;;;;;;5116553;28;20042;-56
2023/12/17 11:02:55;;;;;;;11.82;9.85;;;;;;;;;;5115684;28;20098;-57
2023/12/17 11:05:21;;;;;;;13.50;9.75;;;;;;;;;;5116158;28;20084;-57
2023/12/17 11:07:47;;;;;;;12.20;9.52;;;;;;;;;;5115628;28;20024;-58
2023/12/17 11:10:15;;;;;;;9.55;8.55;;;;;;;;;;5115120;28;20063;-54
2023/12/17 11:12:41;;;;;;;13.98;8.73;;;;;;;;;;5115414;28;20381;-55
2023/12/17 11:15:07;;;;;;;12.45;8.60;;;;;;;;;;5115452;28;20095;-59
2023/12/17 11:17:33;;;;;;;11.82;9.10;;;;;;;;;;5116021;28;20028;-57
2023/12/17 11:20:03;;;;;;;10.35;8.98;;;;;;;;;;5115925;28;20023;-58
2023/12/17 11:22:29;;;;;;;12.60;9.27;;;;;;;;;;5115987;28;20031;-53
2023/12/17 11:24:57;;;;;;;10.00;8.35;;;;;;;;;;5114270;28;20283;-54
2023/12/17 11:27:23;;;;;;;10.90;9.02;;;;;;;;;;5116069;28;20323;-56
2023/12/17 11:29:50;;;;;;;9.93;7.55;;;;;;;;;;5115750;28;20060;-54
2023/12/17 11:32:17;;;;;;;10.10;9.02;;;;;;;;;;5115253;28;20149;-56
2023/12/17 11:34:48;;;;;;;10.05;9.00;;;;;;;;;;5115942;28;20020;-57
2023/12/17 11:37:16;;;;;;;9.77;8.25;;;;;;;;;;5115430;28;20031;-57
2023/12/17 11:39:43;;;;;;;9.65;8.20;;;;;;;;;;5115149;28;20362;-56
2023/12/17 11:42:08;;;;;;;10.07;8.38;;;;;;;;;;5115556;28;20023;-57
2023/12/17 11:44:34;;;;;;;8.60;7.38;;;;;;;;;;5114983;28;20034;-55
2023/12/17 11:47:00;;;;;;;8.48;7.50;;;;;;;;;;5115155;28;20053;-56
2023/12/17 11:49:28;;;;;;;9.55;8.38;;;;;;;;;;5115012;28;20046;-55
2023/12/17 11:51:54;;;;;;;11.18;9.25;;;;;;;;;;5115003;28;20031;-56
2023/12/17 11:54:21;;;;;;;10.05;7.95;;;;;;;;;;5115484;28;20027;-55
2023/12/17 11:56:54;;;;;;;8.52;6.63;;;;;;;;;;5071008;28;20395;-55
2023/12/17 11:59:33;;;;;;;9.10;6.97;;;;;;;;;;5070881;28;20083;-53
2023/12/17 12:02:00;;;;;;;8.90;7.97;;;;;;;;;;5071397;28;20053;-50
2023/12/17 12:04:26;;;;;;;9.10;8.10;;;;;;;;;;5070944;28;20466;-55
2023/12/17 12:06:55;;;;;;;8.35;7.28;;;;;;;;;;5070931;28;20083;-55
2023/12/17 12:09:21;;;;;;;12.27;7.95;;;;;;;;;;5070795;28;20025;-57
2023/12/17 12:11:47;;;;;;;7.93;6.40;;;;;;;;;;5071019;28;20040;-57
2023/12/17 12:14:13;;;;;;;7.13;6.43;;;;;;;;;;5070867;28;20052;-57
2023/12/17 12:16:41;;;;;;;7.38;6.60;;;;;;;;;;5070632;28;20510;-54
2023/12/17 12:19:09;;;;;;;7.15;6.45;;;;;;;;;;5070616;28;20028;-56
2023/12/17 12:21:35;;;;;;;6.25;5.65;;;;;;;;;;5070626;28;20040;-55
2023/12/17 12:24:01;;;;;;;8.30;6.65;;;;;;;;;;5070870;28;20029;-55
2023/12/17 12:26:27;;;;;;;9.23;6.38;;;;;;;;;;5070529;28;20036;-57
2023/12/17 12:28:57;;;;;;;6.43;5.80;;;;;;;;;;5071106;28;20038;-56
2023/12/17 12:31:24;;;;;;;7.90;6.57;;;;;;;;;;5070507;28;20430;-55
2023/12/17 12:33:53;;;;;;;6.63;5.97;;;;;;;;;;5070397;28;20255;-57
2023/12/17 12:36:22;;;;;;;7.70;6.43;;;;;;;;;;5070256;28;20146;-55
2023/12/17 12:39:01;;;;;;;6.43;5.75;;;;;;;;;;5071079;28;20043;-55
2023/12/17 12:41:28;;;;;;;7.25;6.13;;;;;;;;;;5070700;28;20459;-56
2023/12/17 12:43:55;;;;;;;6.63;5.72;;;;;;;;;;5070189;28;20025;-55
2023/12/17 12:46:22;;;;;;;6.80;6.10;;;;;;;;;;5070180;28;20031;-57
2023/12/17 12:48:54;;;;;;;7.85;6.05;;;;;;;;;;5070429;28;20401;-57
2023/12/17 12:51:20;;;;;;;7.18;6.25;;;;;;;;;;5070413;28;20410;-56
2023/12/17 12:53:47;;;;;;;6.93;6.22;;;;;;;;;;5069817;28;20033;-55
2023/12/17 12:56:13;;;;;;;9.23;6.43;;;;;;;;;;5069538;28;20052;-57
2023/12/17 12:58:39;;;;;;;7.95;6.60;;;;;;;;;;5069539;28;20028;-58
2023/12/17 13:01:05;;;;;;;6.35;5.68;;;;;;;;;;5069739;28;20440;-56
2023/12/17 13:03:31;;;;;;;6.60;5.68;;;;;;;;;;5070132;28;20032;-56
2023/12/17 13:05:57;;;;;;;7.35;6.57;;;;;;;;;;5069665;28;20162;-58
2023/12/17 13:08:23;;;;;;;7.85;5.82;;;;;;;;;;5056026;28;20021;-56
2023/12/17 13:10:52;;;;;;;8.35;7.13;;;;;;;;;;5056310;28;20029;-58
2023/12/17 13:13:18;;;;;;;7.05;6.28;;;;;;;;;;5056764;28;20039;-58
2023/12/17 13:15:44;;;;;;;5.85;4.88;;;;;;;;;;5056224;28;20033;-56
2023/12/17 13:18:10;;;;;;;6.78;5.68;;;;;;;;;;5056456;28;20035;-53
2023/12/17 13:20:36;;;;;;;6.40;5.70;;;;;;;;;;5056290;28;20025;-52
2023/12/17 13:23:02;;;;;;;6.70;5.75;;;;;;;;;;5056038;28;20053;-57
2023/12/17 13:25:30;;;;;;;5.88;5.28;;;;;;;;;;5055882;28;20033;-57
2023/12/17 13:27:56;;;;;;;6.68;5.43;;;;;;;;;;5055995;28;20484;-57
2023/12/17 13:30:25;;;;;;;6.15;5.53;;;;;;;;;;5055907;28;20112;-57
2023/12/17 13:32:51;;;;;;;11.68;5.47;;;;;;;;;;5056323;28;20025;-57
2023/12/17 13:35:17;;;;;;;7.55;5.60;;;;;;;;;;5055704;28;20128;-58
2023/12/17 13:37:43;;;;;;;6.30;5.32;;;;;;;;;;5055926;28;20130;-56
2023/12/17 13:40:09;;;;;;;6.50;5.72;;;;;;;;;;5055656;28;20388;-57
2023/12/17 13:42:36;;;;;;;5.55;4.85;;;;;;;;;;5056070;28;20021;-57
2023/12/17 13:45:02;;;;;;;7.85;6.45;;;;;;;;;;5055295;28;20536;-58
2023/12/17 13:47:28;;;;;;;6.22;5.63;;;;;;;;;;5056188;28;20463;-57
2023/12/17 13:49:54;;;;;;;8.55;6.38;;;;;;;;;;5055456;28;20027;-56
2023/12/17 13:52:21;;;;;;;7.13;6.40;;;;;;;;;;5055503;28;20025;-58
2023/12/17 13:54:47;;;;;;;8.00;6.57;;;;;;;;;;5055875;28;20118;-58
2023/12/17 13:57:17;;;;;;;8.23;6.00;;;;;;;;;;5055369;28;20028;-57
2023/12/17 13:59:44;;;;;;;6.78;6.03;;;;;;;;;;5055871;28;20025;-56
2023/12/17 14:02:10;;;;;;;9.20;7.95;;;;;;;;;;5055472;28;20039;-57
2023/12/17 14:04:36;;;;;;;8.07;7.28;;;;;;;;;;5055454;28;20111;-55
2023/12/17 14:07:02;;;;;;;9.63;7.53;;;;;;;;;;5055514;28;20017;-57
2023/12/17 14:09:28;;;;;;;7.40;6.63;;;;;;;;;;5055687;28;20494;-55
2023/12/17 14:11:54;;;;;;;7.43;5.97;;;;;;;;;;5055811;28;20024;-55
2023/12/17 14:14:20;;;;;;;6.85;5.78;;;;;;;;;;5055275;28;20058;-57
2023/12/17 14:16:49;;;;;;;8.65;6.82;;;;;;;;;;5055415;28;20028;-56
2023/12/17 14:19:14;;;;;;;8.38;7.30;;;;;;;;;;5054630;28;20033;-56
2023/12/17 14:21:40;;;;;;;8.73;7.10;;;;;;;;;;5054979;28;20359;-56